Time;durP1;ratioP1;P1;durP2;ratioP2;P2;SDS_P1;SDS_P2;PMS_P1;PMS_P2;Temp;Humidity;BMP_temperature;BMP_pressure;BME280_temperature;BME280_humidity;BME280_pressure;Samples;Min_cycle;Max_cycle;Signal;HPM_P1;HPM_P2
2023/01/22 14:13:45;;;;;;;7.65;5.97;;;5.20;68.10;;;;;;5071046;28;20383;-74
2023/01/22 14:16:11;;;;;;;6.25;4.90;;;5.20;68.10;;;;;;5070945;28;20033;-72
2023/01/22 14:18:37;;;;;;;7.45;5.28;;;5.20;69.00;;;;;;5070125;28;20576;-74
2023/01/22 14:21:04;;;;;;;8.88;6.20;;;5.20;69.60;;;;;;5070617;28;20032;-74
2023/01/22 14:23:29;;;;;;;6.60;5.03;;;5.30;70.00;;;;;;5070328;28;20029;-73
2023/01/22 14:25:56;;;;;;;7.38;5.25;;;5.40;70.20;;;;;;5070079;28;20150;-73
2023/01/22 14:28:23;;;;;;;6.10;4.97;;;5.40;70.30;;;;;;5070169;28;20029;-73
2023/01/22 14:30:49;;;;;;;6.68;5.10;;;5.50;70.50;;;;;;5070639;28;20426;-73
2023/01/22 14:33:21;;;;;;;6.88;4.75;;;5.60;70.50;;;;;;5070617;28;20032;-74
2023/01/22 14:35:47;;;;;;;7.05;5.18;;;5.60;70.50;;;;;;5070350;28;20033;-74
2023/01/22 14:38:13;;;;;;;7.40;5.47;;;5.70;70.50;;;;;;5070258;28;20036;-74
2023/01/22 14:40:40;;;;;;;7.82;5.68;;;5.70;70.50;;;;;;5070566;28;20386;-74
2023/01/22 14:43:05;;;;;;;8.43;5.38;;;5.80;70.50;;;;;;5069464;28;20048;-73
2023/01/22 14:45:31;;;;;;;8.38;5.22;;;5.80;70.40;;;;;;5070765;28;20489;-74
2023/01/22 14:47:57;;;;;;;7.25;5.32;;;5.90;70.40;;;;;;5070217;28;20406;-74
2023/01/22 14:50:23;;;;;;;6.90;5.57;;;5.90;70.40;;;;;;5068943;28;20493;-74
2023/01/22 14:52:52;;;;;;;9.32;6.10;;;6.00;70.40;;;;;;5070223;28;20064;-74
2023/01/22 14:55:18;;;;;;;7.97;5.45;;;6.00;70.30;;;;;;5070697;28;20025;-74
2023/01/22 14:57:44;;;;;;;7.60;5.25;;;6.00;70.20;;;;;;5070278;28;20405;-73
2023/01/22 15:00:13;;;;;;;7.10;5.25;;;6.00;70.20;;;;;;5070363;28;20028;-74
2023/01/22 15:02:40;;;;;;;7.97;5.18;;;6.00;70.20;;;;;;5068495;28;20033;-75
2023/01/22 15:05:07;;;;;;;7.05;5.28;;;6.10;70.20;;;;;;5069647;28;20378;-75
2023/01/22 15:07:33;;;;;;;8.52;5.75;;;6.10;70.20;;;;;;5068493;28;20029;-74
2023/01/22 15:09:59;;;;;;;7.82;5.38;;;6.10;70.10;;;;;;5068956;28;20074;-75
2023/01/22 15:12:25;;;;;;;7.10;4.93;;;6.10;70.10;;;;;;5069606;28;20071;-75
2023/01/22 15:14:50;;;;;;;9.10;5.00;;;6.10;70.00;;;;;;5069989;28;20029;-75
2023/01/22 15:17:16;;;;;;;6.50;4.90;;;6.10;70.00;;;;;;5069506;28;20063;-74
2023/01/22 15:19:42;;;;;;;7.28;5.53;;;6.10;69.90;;;;;;5069364;28;20381;-75
2023/01/22 15:22:08;;;;;;;7.47;5.60;;;6.10;70.20;;;;;;5069775;28;20489;-74
2023/01/22 15:24:33;;;;;;;6.65;5.05;;;6.10;69.80;;;;;;5059654;28;20031;-74
2023/01/22 15:26:59;;;;;;;8.43;5.95;;;6.20;69.80;;;;;;5056631;28;20112;-75
2023/01/22 15:29:25;;;;;;;6.78;4.72;;;6.10;69.80;;;;;;5056158;28;20143;-74
2023/01/22 15:31:50;;;;;;;7.28;4.88;;;6.10;69.80;;;;;;5055943;28;20040;-74
2023/01/22 15:34:16;;;;;;;7.45;5.05;;;6.10;69.70;;;;;;5056141;28;20025;-75
2023/01/22 15:36:42;;;;;;;7.18;4.85;;;6.10;69.70;;;;;;5055968;28;20427;-75
2023/01/22 15:39:08;;;;;;;7.38;5.38;;;6.10;69.70;;;;;;5056179;28;20029;-75
2023/01/22 15:41:35;;;;;;;7.07;4.85;;;6.10;69.70;;;;;;5056193;28;20053;-74
2023/01/22 15:44:04;;;;;;;6.90;4.55;;;6.10;69.60;;;;;;5056196;28;20029;-74
2023/01/22 15:46:36;;;;;;;6.72;4.55;;;6.10;69.60;;;;;;5054892;28;20474;-75
2023/01/22 15:49:04;;;;;;;6.00;4.57;;;6.10;69.60;;;;;;5055939;28;20025;-75
2023/01/22 15:51:30;;;;;;;7.07;4.65;;;6.10;69.60;;;;;;5055805;28;20119;-76
2023/01/22 15:53:57;;;;;;;6.75;4.72;;;6.10;69.50;;;;;;5055763;28;20029;-74
2023/01/22 15:56:26;;;;;;;7.03;4.50;;;6.10;69.50;;;;;;5054240;28;20489;-75
2023/01/22 15:58:52;;;;;;;8.00;5.78;;;6.20;69.50;;;;;;5055642;28;20036;-75
2023/01/22 16:01:19;;;;;;;5.95;4.50;;;6.20;69.40;;;;;;5055673;28;20029;-74
2023/01/22 16:03:45;;;;;;;6.28;4.55;;;6.20;69.40;;;;;;5055322;28;20120;-76
2023/01/22 16:06:16;;;;;;;7.70;5.18;;;6.20;69.40;;;;;;5054573;28;20045;-75
2023/01/22 16:08:44;;;;;;;6.82;4.65;;;6.20;69.40;;;;;;5054273;28;20029;-74
2023/01/22 16:11:10;;;;;;;7.40;5.10;;;6.20;69.40;;;;;;5055732;28;20108;-75
2023/01/22 16:13:36;;;;;;;8.07;5.35;;;6.20;69.30;;;;;;5054998;28;20140;-75
2023/01/22 16:16:06;;;;;;;6.78;4.85;;;6.20;69.30;;;;;;5054221;28;20039;-74
2023/01/22 16:18:34;;;;;;;6.85;4.45;;;6.20;69.30;;;;;;5054149;28;20040;-75
2023/01/22 16:21:07;;;;;;;7.05;4.60;;;6.20;69.30;;;;;;5055463;28;20021;-74
2023/01/22 16:23:36;;;;;;;6.95;5.18;;;6.20;69.30;;;;;;5055202;28;20109;-74
2023/01/22 16:26:08;;;;;;;6.22;4.70;;;6.10;69.20;;;;;;5055030;28;20017;-76
2023/01/22 16:28:37;;;;;;;6.40;4.88;;;6.10;69.20;;;;;;5054908;28;20029;-74
2023/01/22 16:31:08;;;;;;;6.10;4.72;;;6.10;69.20;;;;;;5055702;28;20384;-75
2023/01/22 16:33:35;;;;;;;5.22;3.95;;;6.10;69.10;;;;;;5055064;28;20025;-74
2023/01/22 16:36:04;;;;;;;8.35;4.68;;;6.10;69.10;;;;;;5054559;28;20359;-75
2023/01/22 16:38:30;;;;;;;6.32;4.50;;;6.10;69.10;;;;;;5053923;28;20036;-75
2023/01/22 16:41:20;;;;;;;6.43;4.30;;;6.10;69.10;;;;;;5055098;28;20033;-75
2023/01/22 16:43:50;;;;;;;6.55;4.32;;;6.20;69.10;;;;;;5053714;28;20524;-76
2023/01/22 16:46:18;;;;;;;5.95;4.28;;;6.10;69.00;;;;;;5053897;28;20032;-74
2023/01/22 16:48:44;;;;;;;7.80;4.30;;;6.10;69.00;;;;;;5053341;28;20025;-75
2023/01/22 16:51:20;;;;;;;6.00;4.20;;;6.10;69.00;;;;;;5053517;28;20033;-74
2023/01/22 16:53:46;;;;;;;7.47;4.38;;;6.20;69.10;;;;;;5054785;28;20041;-76
2023/01/22 16:56:13;;;;;;;5.93;4.40;;;6.10;69.00;;;;;;5055205;28;20074;-75
2023/01/22 16:58:39;;;;;;;6.45;4.15;;;6.00;69.00;;;;;;5054446;28;20028;-75
2023/01/22 17:01:06;;;;;;;6.10;3.92;;;6.00;69.10;;;;;;5054293;28;20386;-75
2023/01/22 17:03:32;;;;;;;5.85;4.30;;;6.00;69.20;;;;;;5053046;28;20080;-75
2023/01/22 17:05:59;;;;;;;7.13;4.25;;;6.00;69.30;;;;;;5054111;28;20033;-75
2023/01/22 17:08:24;;;;;;;5.82;4.10;;;6.00;69.20;;;;;;5054448;28;20059;-75
2023/01/22 17:10:50;;;;;;;6.35;4.10;;;6.00;69.30;;;;;;5054066;28;20096;-74
2023/01/22 17:13:16;;;;;;;5.15;3.70;;;6.00;69.20;;;;;;5054190;28;20115;-74
2023/01/22 17:15:44;;;;;;;5.70;4.00;;;6.00;69.20;;;;;;5054755;28;20387;-75
2023/01/22 17:18:10;;;;;;;6.45;4.28;;;6.00;69.20;;;;;;5054277;28;20021;-75
2023/01/22 17:20:36;;;;;;;4.43;3.40;;;6.00;69.10;;;;;;5054027;28;20025;-75
2023/01/22 17:23:02;;;;;;;7.93;4.85;;;6.00;69.10;;;;;;5054307;28;20036;-76
2023/01/22 17:25:27;;;;;;;4.68;3.80;;;6.00;69.10;;;;;;5053001;28;20025;-75
2023/01/22 17:27:53;;;;;;;6.30;4.13;;;6.00;69.10;;;;;;5053072;28;20463;-75
2023/01/22 17:30:19;;;;;;;5.60;4.20;;;6.00;69.10;;;;;;5053974;28;20025;-76
2023/01/22 17:32:45;;;;;;;6.22;4.25;;;6.00;69.10;;;;;;5053011;28;20029;-75
2023/01/22 17:35:12;;;;;;;6.40;4.32;;;6.00;69.10;;;;;;5054858;28;20033;-74
2023/01/22 17:37:37;;;;;;;6.50;4.00;;;6.00;69.10;;;;;;5058325;28;20036;-75
2023/01/22 17:40:04;;;;;;;6.78;4.18;;;6.00;69.00;;;;;;5055719;28;20021;-74
2023/01/22 17:42:29;;;;;;;5.38;3.65;;;6.00;68.90;;;;;;5054085;28;20040;-75
2023/01/22 17:44:55;;;;;;;6.13;3.78;;;6.10;68.90;;;;;;5053867;28;20381;-75
2023/01/22 17:47:21;;;;;;;6.72;4.15;;;6.10;68.90;;;;;;5053435;28;20056;-75
2023/01/22 17:49:47;;;;;;;5.68;3.70;;;6.10;68.90;;;;;;5053531;28;20025;-75
2023/01/22 17:52:13;;;;;;;6.18;4.18;;;6.10;68.80;;;;;;5052533;28;20091;-75
2023/01/22 17:54:39;;;;;;;6.45;4.63;;;6.00;68.80;;;;;;5052403;28;20489;-74
2023/01/22 17:57:05;;;;;;;5.97;4.28;;;6.00;68.80;;;;;;5053962;28;20471;-74
2023/01/22 17:59:31;;;;;;;6.68;4.28;;;6.00;68.80;;;;;;5054098;28;20035;-75
2023/01/22 18:01:58;;;;;;;6.88;4.40;;;6.00;68.80;;;;;;5053759;28;20339;-75
2023/01/22 18:04:24;;;;;;;6.68;4.70;;;6.00;68.80;;;;;;5053509;28;20078;-75
2023/01/22 20:09:20;;;;;;;10.50;6.55;;;4.50;68.60;;;;;;5069618;28;20396;-74
2023/01/22 20:11:49;;;;;;;11.45;6.43;;;4.50;68.40;;;;;;5068841;28;20038;-74
2023/01/22 20:14:14;;;;;;;9.27;6.60;;;4.50;69.30;;;;;;5069927;28;20051;-76
2023/01/22 20:16:40;;;;;;;8.05;5.95;;;4.60;69.90;;;;;;5070014;28;20033;-75
2023/01/22 20:19:06;;;;;;;9.30;6.57;;;4.70;70.30;;;;;;5069956;28;20039;-74
2023/01/22 20:21:31;;;;;;;10.27;6.50;;;4.70;70.50;;;;;;5069770;28;20024;-74
2023/01/22 20:23:57;;;;;;;8.30;5.88;;;4.80;70.70;;;;;;5068682;28;20036;-74
2023/01/22 20:26:23;;;;;;;10.18;6.57;;;4.90;70.80;;;;;;5070100;28;20025;-76
2023/01/22 20:28:49;;;;;;;9.02;6.22;;;5.00;70.80;;;;;;5063483;28;20090;-76
2023/01/22 20:31:18;;;;;;;7.68;5.70;;;5.00;70.80;;;;;;5049125;28;20021;-77
2023/01/22 20:33:44;;;;;;;8.68;6.05;;;5.10;70.80;;;;;;5048962;28;20059;-76
2023/01/22 20:36:13;;;;;;;8.40;5.65;;;5.10;70.70;;;;;;5050055;28;20109;-76
2023/01/22 20:38:40;;;;;;;8.85;5.93;;;5.20;70.70;;;;;;5050326;28;20514;-75
2023/01/22 20:41:09;;;;;;;7.90;5.72;;;5.30;70.70;;;;;;5050078;28;20436;-75
2023/01/22 20:43:38;;;;;;;7.18;6.18;;;5.30;70.50;;;;;;5048135;28;20033;-75
2023/01/22 20:46:12;;;;;;;8.23;6.07;;;5.30;70.40;;;;;;5049466;28;20045;-75
2023/01/22 20:48:38;;;;;;;8.43;6.40;;;5.40;70.40;;;;;;5049750;28;20033;-75
2023/01/22 20:51:08;;;;;;;9.88;6.10;;;5.40;70.30;;;;;;5049834;28;20037;-75
2023/01/22 20:53:34;;;;;;;9.38;6.10;;;5.50;70.30;;;;;;5050284;28;20026;-74
2023/01/22 20:56:06;;;;;;;8.85;6.20;;;5.50;70.20;;;;;;5049690;28;20021;-74
2023/01/22 20:58:32;;;;;;;9.70;6.32;;;5.50;70.20;;;;;;5048543;28;20033;-74
2023/01/22 21:01:07;;;;;;;8.27;5.75;;;5.50;70.10;;;;;;5048582;28;20022;-74
2023/01/22 21:03:33;;;;;;;8.27;6.10;;;5.50;70.10;;;;;;5049693;28;20532;-74
2023/01/22 21:06:09;;;;;;;8.30;5.70;;;5.60;70.10;;;;;;5048537;28;20033;-74
2023/01/22 21:08:35;;;;;;;8.18;5.22;;;5.60;70.00;;;;;;5049508;28;20060;-74
2023/01/22 21:11:07;;;;;;;9.80;5.90;;;5.60;69.80;;;;;;5049867;28;20071;-75
2023/01/22 21:13:33;;;;;;;8.25;5.88;;;5.60;69.80;;;;;;5048280;28;20132;-74
2023/01/22 21:16:16;;;;;;;10.50;6.20;;;5.60;69.70;;;;;;5048133;28;20029;-74
2023/01/22 21:18:43;;;;;;;8.85;6.28;;;5.60;69.70;;;;;;5047169;28;20041;-74
2023/01/22 21:21:12;;;;;;;8.35;6.25;;;5.60;69.70;;;;;;5034277;28;20104;-73
2023/01/22 21:23:38;;;;;;;8.07;6.10;;;5.60;69.70;;;;;;5036034;28;20079;-75
2023/01/22 21:26:10;;;;;;;8.10;5.55;;;5.60;69.70;;;;;;5035849;28;20064;-74
2023/01/22 21:28:36;;;;;;;8.20;5.50;;;5.60;69.60;;;;;;5035873;28;20037;-74
2023/01/22 21:31:10;;;;;;;8.98;5.72;;;5.60;69.60;;;;;;5035822;28;20467;-74
2023/01/22 21:33:36;;;;;;;7.97;5.85;;;5.60;69.60;;;;;;5034885;28;20475;-73
2023/01/22 21:36:03;;;;;;;8.38;5.13;;;5.60;69.60;;;;;;5035929;28;20072;-75
2023/01/22 21:38:28;;;;;;;8.88;5.47;;;5.60;69.50;;;;;;5034666;28;20120;-73
2023/01/22 21:41:08;;;;;;;8.70;5.55;;;5.60;69.40;;;;;;5035835;28;20112;-74
2023/01/22 21:46:21;;;;;;;7.10;5.00;;;5.60;69.30;;;;;;5036071;28;20032;-74
2023/01/22 21:48:47;;;;;;;7.18;4.95;;;5.60;69.90;;;;;;5035663;28;20092;-74
2023/01/22 21:51:13;;;;;;;6.55;5.22;;;5.60;69.30;;;;;;5034374;28;20109;-76
2023/01/22 21:53:39;;;;;;;7.20;5.03;;;5.60;69.20;;;;;;5035430;28;20021;-74
2023/01/22 21:56:05;;;;;;;5.72;4.60;;;5.60;69.30;;;;;;5034107;28;20459;-75
2023/01/22 21:58:31;;;;;;;7.50;5.07;;;5.60;69.40;;;;;;5034304;28;20029;-75
2023/01/22 22:01:07;;;;;;;7.75;5.28;;;5.60;69.30;;;;;;5035517;28;20426;-75
2023/01/22 22:03:34;;;;;;;7.30;4.88;;;5.60;69.40;;;;;;5035544;28;20053;-74
2023/01/22 22:06:00;;;;;;;7.63;4.95;;;5.60;69.30;;;;;;5035508;28;20467;-74
2023/01/22 22:08:27;;;;;;;6.93;4.78;;;5.60;69.20;;;;;;5035281;28;20104;-75
2023/01/22 22:10:53;;;;;;;7.00;4.90;;;5.60;69.10;;;;;;5034110;28;20036;-75
2023/01/22 22:13:19;;;;;;;7.25;4.88;;;5.60;69.10;;;;;;5035224;28;20033;-74
2023/01/22 22:15:45;;;;;;;7.00;4.90;;;5.70;69.10;;;;;;5035163;28;20432;-74
2023/01/22 22:18:11;;;;;;;6.47;5.00;;;5.70;69.60;;;;;;5034038;28;20124;-75
2023/01/22 22:20:36;;;;;;;7.35;5.10;;;5.70;69.00;;;;;;5033678;28;20033;-74
2023/01/22 22:23:02;;;;;;;7.30;5.32;;;5.70;68.90;;;;;;5034751;28;20022;-75
2023/01/22 22:25:30;;;;;;;6.53;4.55;;;5.70;68.90;;;;;;5033900;28;20068;-74
2023/01/22 22:27:57;;;;;;;7.00;5.25;;;5.70;68.90;;;;;;5033797;28;20065;-74
2023/01/22 22:30:22;;;;;;;7.97;5.30;;;5.70;68.90;;;;;;5034363;28;20041;-75
2023/01/22 22:32:48;;;;;;;7.65;4.93;;;5.70;68.80;;;;;;5033341;28;20514;-74
2023/01/22 22:35:14;;;;;;;7.15;5.05;;;5.70;68.80;;;;;;5034632;28;20030;-75
2023/01/22 22:37:40;;;;;;;6.68;4.93;;;5.70;68.80;;;;;;5034898;28;20116;-75
2023/01/22 22:40:06;;;;;;;6.95;5.18;;;5.70;68.80;;;;;;5034810;28;20145;-75
2023/01/22 22:42:32;;;;;;;6.60;4.82;;;5.70;68.80;;;;;;5033497;28;20021;-73
2023/01/22 22:44:58;;;;;;;7.65;5.00;;;5.70;68.80;;;;;;5033179;28;20083;-73
2023/01/22 22:47:24;;;;;;;7.00;4.82;;;5.70;68.80;;;;;;5034379;28;20044;-74
2023/01/22 22:49:49;;;;;;;7.47;5.25;;;5.70;68.80;;;;;;5033146;28;20033;-74
2023/01/22 22:52:15;;;;;;;7.53;4.93;;;5.70;68.80;;;;;;5034671;28;20076;-74
2023/01/22 22:54:41;;;;;;;7.32;5.15;;;5.70;68.70;;;;;;5034497;28;20080;-73
2023/01/22 22:57:07;;;;;;;6.15;4.97;;;5.70;68.70;;;;;;5034346;28;20033;-73
2023/01/22 22:59:32;;;;;;;6.45;4.88;;;5.70;68.60;;;;;;5034212;28;20029;-73
2023/01/22 23:01:58;;;;;;;7.72;4.82;;;5.70;68.60;;;;;;5034038;28;20422;-73
2023/01/22 23:04:24;;;;;;;6.25;4.55;;;5.70;68.60;;;;;;5033944;28;20056;-73
2023/01/22 23:06:50;;;;;;;6.40;4.55;;;5.70;68.60;;;;;;5034155;28;20025;-73
2023/01/22 23:09:19;;;;;;;7.25;4.70;;;5.70;68.50;;;;;;5034305;28;20057;-73
2023/01/22 23:11:45;;;;;;;5.25;3.95;;;5.70;68.50;;;;;;5033159;28;20029;-73
2023/01/22 23:14:11;;;;;;;6.57;5.07;;;5.70;68.50;;;;;;5032596;28;20060;-73
2023/01/22 23:16:39;;;;;;;8.00;5.60;;;5.60;68.50;;;;;;5032724;28;20026;-74
2023/01/22 23:19:13;;;;;;;7.20;4.75;;;5.70;68.50;;;;;;5032605;28;20068;-73
2023/01/22 23:21:40;;;;;;;8.90;5.40;;;5.60;68.50;;;;;;5034200;28;20025;-74
2023/01/22 23:24:10;;;;;;;6.20;4.95;;;5.60;68.50;;;;;;5033875;28;20136;-73
2023/01/22 23:26:37;;;;;;;10.02;5.47;;;5.60;68.60;;;;;;5032956;28;20356;-74
2023/01/22 23:29:05;;;;;;;8.15;5.47;;;5.60;68.60;;;;;;5033584;28;20041;-74
2023/01/22 23:31:33;;;;;;;6.35;5.03;;;5.60;68.60;;;;;;5033816;28;20067;-74
2023/01/22 23:34:00;;;;;;;7.45;5.10;;;5.60;68.60;;;;;;5033833;28;20026;-74
2023/01/22 23:36:26;;;;;;;7.25;5.45;;;5.50;68.60;;;;;;5033432;28;20421;-74
2023/01/22 23:38:52;;;;;;;6.97;4.90;;;5.50;68.60;;;;;;5033861;28;20100;-74
2023/01/22 23:41:18;;;;;;;7.15;5.28;;;5.50;68.60;;;;;;5033831;28;20029;-74
2023/01/22 23:43:45;;;;;;;7.63;4.68;;;5.50;68.70;;;;;;5033228;28;20072;-74
2023/01/22 23:46:23;;;;;;;6.28;4.85;;;5.50;68.70;;;;;;5033558;28;20056;-74
2023/01/22 23:48:49;;;;;;;7.03;5.32;;;5.50;68.70;;;;;;5033632;28;20030;-74
2023/01/22 23:51:16;;;;;;;7.20;5.03;;;5.50;68.70;;;;;;5033647;28;20038;-74
2023/01/22 23:53:46;;;;;;;6.55;4.80;;;5.50;68.60;;;;;;5033530;28;20037;-74
2023/01/22 23:56:13;;;;;;;6.68;5.20;;;5.50;68.70;;;;;;5033471;28;20386;-74
2023/01/22 23:58:40;;;;;;;7.30;5.38;;;5.50;68.60;;;;;;5033376;28;20104;-74
